Bookmark and Share
Track history (hours):
 

Patrice Six

Last reported at 2014-Apr-13 05:32 UTC. Time now 2014-Apr-16 19:29 UTC.
Position S 32°43' E 152°06'.

Length 14 m.

Type: Sailing vessel. MMSI: 503659300.

NotesDate/timePositionNaut miles runAvg speedWind from/ knotsBaromVisibWave heightAir tempDewpointWater temp
2014-Apr-13 05:32S 32°43' E 152°06'5 5.3
2014-Apr-13 04:33S 32°42' E 152°12'3 3.0
2014-Apr-13 03:33S 32°39' E 152°13'0 0.3
2014-Apr-13 02:33S 32°39' E 152°14'0 0.3
2014-Apr-13 01:33S 32°40' E 152°13'3 2.6
2014-Apr-13 00:33S 32°42' E 152°14'6 6.3
2014-Apr-12 23:31S 32°43' E 152°06'0 0.0
2014-Apr-12 07:15S 32°43' E 152°06'0 0.0
2014-Apr-12 06:33S 32°43' E 152°06'1 1.0
2014-Apr-12 05:33S 32°43' E 152°05'1 0.9
2014-Apr-12 04:33S 32°43' E 152°06'1 0.5
2014-Apr-12 03:33S 32°43' E 152°05'1 0.8
2014-Apr-12 02:31S 32°43' E 152°06'0 0.0
2014-Apr-12 01:31S 32°43' E 152°06'4 3.9
2014-Apr-12 00:33S 32°42' E 152°11'4 3.7
2014-Apr-11 23:33S 32°43' E 152°06'0 0.0
2014-Apr-11 07:31S 32°43' E 152°06'6 6.6
2014-Apr-11 06:33S 32°42' E 152°14'2 2.1
2014-Apr-11 05:33S 32°40' E 152°14'1 1.1
2014-Apr-11 04:33S 32°41' E 152°15'1 1.1
2014-Apr-11 03:33S 32°40' E 152°17'2 2.2
2014-Apr-11 02:33S 32°38' E 152°16'2 1.9
2014-Apr-11 01:33S 32°40' E 152°15'2 2.0
2014-Apr-11 00:33S 32°41' E 152°13'6 5.9
2014-Apr-10 23:33S 32°43' E 152°06'0 0.0
2014-Apr-10 06:33S 32°43' E 152°06'1 1.4
2014-Apr-10 05:33S 32°43' E 152°08'5 4.6
2014-Apr-10 04:33S 32°42' E 152°13'3 2.8
2014-Apr-10 03:33S 32°40' E 152°15'4 4.2
2014-Apr-10 02:33S 32°42' E 152°11'4 3.9
2014-Apr-10 01:32S 32°43' E 152°06'0 0.0
2014-Apr-10 00:32S 32°43' E 152°06'0 0.0
2014-Apr-09 06:14S 32°43' E 152°06'0 0.0
2014-Apr-09 05:29S 32°43' E 152°06'0 0.0
2014-Apr-09 04:32S 32°43' E 152°06'0 0.0
2014-Apr-09 03:32S 32°43' E 152°06'0 0.0
2014-Apr-09 02:29S 32°43' E 152°06'0 0.0
2014-Apr-09 01:32S 32°43' E 152°06'0 0.0
2014-Apr-08 02:33S 32°43' E 152°06'1 0.9
2014-Apr-08 01:33S 32°43' E 152°07'5 5.0
2014-Apr-08 00:33S 32°46' E 152°12'8 8.0
2014-Apr-07 23:33S 32°52' E 152°07'  

Dump ship's entire track history

sailing weather and tide predictions

Patrice Six — VKN6053 — position and weather